This is the latest recevied weather packets stored in our database for station/object AD4CG. If no packets are shown the sender has not sent any weather packets the latest 10 day(s).
| Time | Temp. | Humidity | Pressure | Rain* | Wind** | Luminosity | Snow |
|---|---|---|---|---|---|---|---|
| 1777632708 | 11.67° C | 68% | 1015.6 hPa | 0 mm | - | - | - |
| 1777631084 | 12.22° C | 64% | 1015.6 hPa | 0 mm | - | - | - |
| 1777630773 | 12.22° C | 64% | 1015.2 hPa | 0 mm | - | - | - |
| 1777630460 | 12.22° C | 63% | 1015.2 hPa | 0 mm | - | - | - |
| 1777629518 | 12.78° C | 70% | 1015.2 hPa | 0 mm | - | - | - |
| 1777629206 | 12.78° C | 71% | 1014.9 hPa | 0 mm | - | - | - |
| 1777627281 | 12.78° C | 70% | 1015.2 hPa | 0 mm | - | - | - |
| 1777624140 | 13.33° C | 65% | 1014.9 hPa | 0 mm | - | - | - |
| 1777623828 | 13.33° C | 66% | 1014.9 hPa | 0 mm | - | - | - |
| 1777622888 | 13.33° C | 66% | 1014.9 hPa | 0 mm | - | - | - |
| 1777622576 | 13.33° C | 66% | 1014.6 hPa | 0 mm | - | - | - |
| 1777621950 | 13.89° C | 63% | 1014.6 hPa | 0 mm | - | - | - |
| 1777621327 | 13.89° C | 63% | 1014.6 hPa | 0 mm | - | - | - |
| 1777621015 | 13.89° C | 64% | 1014.6 hPa | 0 mm | - | - | - |
| 1777619761 | 14.44° C | 63% | 1014.2 hPa | 0 mm | - | - | - |
| 1777612870 | 15.56° C | 63% | 1013.9 hPa | 0 mm | - | - | - |
| 1777610675 | 16.11° C | 70% | 1013.5 hPa | 0 mm | - | - | - |
| 1777609739 | 16.67° C | 72% | 1013.5 hPa | 0 mm | - | - | - |
| 1777609425 | 16.67° C | 72% | 1013.2 hPa | 0 mm | - | - | - |
| 1777608802 | 16.67° C | 73% | 1013.2 hPa | 0 mm | - | - | - |
| 1777604108 | 14.44° C | 100% | 1012.5 hPa | 0 mm | - | - | - |
| 1777602537 | 14.44° C | 100% | 1011.9 hPa | 0 mm | - | - | - |
| 1777599722 | 15.56° C | 100% | 1011.5 hPa | 0 mm | - | - | - |
| 1777599099 | 15.56° C | 100% | 1011.2 hPa | 0 mm | - | - | - |
| 1777598156 | 16.11° C | 100% | 1011.2 hPa | 0 mm | - | - | - |
* Rain latest hour (hover to see other rain measurements)
** Current wind speed in m/s (hover to see current wind gust speed)